createdAt,value
2023-04-25T00:00:30.978Z,11.70
2023-04-25T00:02:58.500Z,11.70
2023-04-25T00:05:27.358Z,11.70
2023-04-25T00:07:55.046Z,11.70
2023-04-25T00:10:22.616Z,11.70
2023-04-25T00:12:50.327Z,11.70
2023-04-25T00:15:18.657Z,11.70
2023-04-25T00:17:46.603Z,11.70
2023-04-25T00:20:14.106Z,11.80
2023-04-25T00:22:41.479Z,11.80
2023-04-25T00:25:09.291Z,11.80
2023-04-25T00:27:36.680Z,11.80
2023-04-25T00:30:04.641Z,11.80
2023-04-25T00:32:32.131Z,11.80
2023-04-25T00:34:59.630Z,11.80
2023-04-25T00:37:27.059Z,11.80
2023-04-25T00:39:55.815Z,11.80
2023-04-25T00:42:23.309Z,11.80
2023-04-25T00:44:51.037Z,11.80
2023-04-25T00:47:18.675Z,11.80
2023-04-25T00:49:46.113Z,11.80
2023-04-25T00:52:13.845Z,11.80
2023-04-25T00:54:41.317Z,11.80
2023-04-25T00:57:08.600Z,11.80
2023-04-25T00:59:38.345Z,11.80
2023-04-25T01:02:06.157Z,11.80
2023-04-25T01:04:33.694Z,11.80
2023-04-25T01:07:01.093Z,11.80
2023-04-25T01:09:28.897Z,11.70
2023-04-25T01:11:56.367Z,11.70
2023-04-25T01:14:23.970Z,11.70
2023-04-25T01:16:51.722Z,11.60
2023-04-25T01:19:19.294Z,11.60
2023-04-25T01:21:47.921Z,11.60
2023-04-25T01:24:16.498Z,11.60
2023-04-25T01:26:50.663Z,11.60
2023-04-25T01:29:23.038Z,11.60
2023-04-25T01:31:52.207Z,11.60
2023-04-25T01:34:20.133Z,11.60
2023-04-25T01:36:51.305Z,11.60
2023-04-25T01:39:19.544Z,11.60
2023-04-25T01:41:48.006Z,11.60
2023-04-25T01:44:15.734Z,11.60
2023-04-25T01:46:43.112Z,11.60
2023-04-25T01:49:12.077Z,11.60
2023-04-25T01:51:40.598Z,11.60
2023-04-25T01:54:09.163Z,11.60
2023-04-25T01:56:38.563Z,11.60
2023-04-25T01:59:07.874Z,11.60
2023-04-25T02:01:51.003Z,11.60
2023-04-25T02:04:27.304Z,11.60
2023-04-25T02:06:54.968Z,11.60
2023-04-25T02:09:23.531Z,11.60
2023-04-25T02:11:56.468Z,11.60
2023-04-25T02:14:36.269Z,11.60
2023-04-25T02:17:08.165Z,11.60
2023-04-25T02:19:36.069Z,11.60
2023-04-25T02:22:03.638Z,11.60
2023-04-25T02:24:30.907Z,11.60
2023-04-25T02:26:58.184Z,11.60
2023-04-25T02:29:25.473Z,11.60
2023-04-25T02:31:52.968Z,11.60
2023-04-25T02:34:21.381Z,11.60
2023-04-25T02:36:51.593Z,11.70
2023-04-25T02:39:19.630Z,11.70
2023-04-25T02:41:46.895Z,11.70
2023-04-25T02:44:14.123Z,11.70
2023-04-25T02:46:41.428Z,11.60
2023-04-25T02:49:08.653Z,11.60
2023-04-25T02:51:36.863Z,11.60
2023-04-25T02:54:04.443Z,11.60
2023-04-25T02:56:35.588Z,11.60
2023-04-25T02:59:03.266Z,11.60
2023-04-25T03:01:31.834Z,11.60
2023-04-25T03:03:59.112Z,11.60
2023-04-25T03:06:26.405Z,11.60
2023-04-25T03:08:54.381Z,11.60
2023-04-25T03:11:22.040Z,11.60
2023-04-25T03:13:50.076Z,11.60
2023-04-25T03:16:17.666Z,11.60
2023-04-25T03:18:45.052Z,11.60
2023-04-25T03:21:12.525Z,11.60
2023-04-25T03:23:39.980Z,11.60
2023-04-25T03:26:08.861Z,11.60
2023-04-25T03:28:36.172Z,11.60
2023-04-25T03:31:03.688Z,11.60
2023-04-25T03:33:31.351Z,11.60
2023-04-25T03:35:59.148Z,11.60
2023-04-25T03:38:28.830Z,11.50
2023-04-25T03:40:57.369Z,11.50
2023-04-25T03:43:38.131Z,11.50
2023-04-25T03:46:10.545Z,11.50
2023-04-25T03:48:38.780Z,11.50
2023-04-25T03:51:07.639Z,11.50
2023-04-25T03:53:38.642Z,11.50
2023-04-25T03:56:15.198Z,11.50
2023-04-25T03:58:43.088Z,11.40
2023-04-25T04:01:11.220Z,11.40
2023-04-25T04:03:40.785Z,11.50
2023-04-25T04:06:09.391Z,11.40
2023-04-25T04:08:40.401Z,11.50
2023-04-25T04:11:07.835Z,11.50
2023-04-25T04:13:35.197Z,11.50
2023-04-25T04:16:05.255Z,11.50
2023-04-25T04:18:34.170Z,11.50
2023-04-25T04:21:02.761Z,11.50
2023-04-25T04:23:32.860Z,11.50
2023-04-25T04:26:01.726Z,11.50
2023-04-25T04:28:45.193Z,11.50
2023-04-25T04:31:35.733Z,11.50
2023-04-25T04:34:04.563Z,11.50
2023-04-25T04:36:32.133Z,11.50
2023-04-25T04:39:00.006Z,11.50
2023-04-25T04:41:36.773Z,11.50
2023-04-25T04:44:33.601Z,11.60
2023-04-25T04:47:21.216Z,11.50
2023-04-25T04:50:15.981Z,11.50
2023-04-25T04:53:10.580Z,11.60
2023-04-25T04:55:47.989Z,11.60
2023-04-25T04:58:39.081Z,11.60
2023-04-25T05:01:13.761Z,11.60
2023-04-25T05:04:07.645Z,11.50
2023-04-25T05:06:49.886Z,11.50
2023-04-25T05:09:40.316Z,11.50
2023-04-25T05:12:27.990Z,11.50
2023-04-25T05:15:09.690Z,11.40
2023-04-25T05:17:52.169Z,11.40
2023-04-25T05:20:46.181Z,11.40
2023-04-25T05:26:23.624Z,11.30
2023-04-25T05:29:01.279Z,11.30
2023-04-25T05:31:54.757Z,11.30
2023-04-25T05:34:22.241Z,11.30
2023-04-25T05:36:57.102Z,11.20
2023-04-25T05:39:25.609Z,11.20
2023-04-25T05:42:13.628Z,11.20
2023-04-25T05:44:53.570Z,11.10
2023-04-25T05:47:39.501Z,11.10
2023-04-25T05:50:19.246Z,11.10
2023-04-25T05:52:53.635Z,11.10
2023-04-25T05:55:36.656Z,11.00
2023-04-25T05:58:18.150Z,10.90
2023-04-25T06:00:45.767Z,10.90
2023-04-25T06:03:17.773Z,10.80
2023-04-25T06:05:47.873Z,10.80
2023-04-25T06:08:15.383Z,10.80
2023-04-25T06:10:42.877Z,10.80
2023-04-25T06:13:10.408Z,10.80
2023-04-25T06:15:38.295Z,10.70
2023-04-25T06:18:05.891Z,10.80
2023-04-25T06:20:35.236Z,10.80
2023-04-25T06:23:03.184Z,10.80
2023-04-25T06:25:49.922Z,10.80
2023-04-25T06:28:17.487Z,10.80
2023-04-25T06:30:46.148Z,10.80
2023-04-25T06:33:18.136Z,10.90
2023-04-25T06:35:46.692Z,10.90
2023-04-25T06:38:16.780Z,11.00
2023-04-25T06:40:48.454Z,11.10
2023-04-25T06:43:16.238Z,11.10
2023-04-25T06:46:02.611Z,11.20
2023-04-25T06:48:32.902Z,11.20
2023-04-25T06:51:00.446Z,11.30
2023-04-25T06:53:28.102Z,11.30
2023-04-25T06:56:00.068Z,11.40
2023-04-25T06:58:35.762Z,11.40
2023-04-25T07:01:26.189Z,11.40
2023-04-25T07:03:53.970Z,11.50
2023-04-25T07:06:21.927Z,11.50
2023-04-25T07:08:49.622Z,11.60
2023-04-25T07:11:17.354Z,11.60
2023-04-25T07:13:44.754Z,11.70
2023-04-25T07:16:12.168Z,11.80
2023-04-25T07:18:39.723Z,11.90
2023-04-25T07:21:07.188Z,12.00
2023-04-25T07:23:35.831Z,12.10
2023-04-25T07:26:09.858Z,12.20
2023-04-25T07:28:41.838Z,12.50
2023-04-25T07:31:09.288Z,12.70
2023-04-25T07:33:37.015Z,12.90
2023-04-25T07:36:05.077Z,13.20
2023-04-25T07:38:32.758Z,13.40
2023-04-25T07:41:00.216Z,13.60
2023-04-25T07:43:27.827Z,13.90
2023-04-25T07:45:59.376Z,14.20
2023-04-25T07:48:29.530Z,14.50
2023-04-25T07:50:57.606Z,14.70
2023-04-25T07:53:25.122Z,14.80
2023-04-25T07:55:57.162Z,14.80
2023-04-25T07:58:24.798Z,14.80
2023-04-25T08:00:56.610Z,14.80
2023-04-25T08:03:36.443Z,14.70
2023-04-25T08:06:10.576Z,14.60
2023-04-25T08:08:48.958Z,14.50
2023-04-25T08:11:19.602Z,14.40
2023-04-25T08:13:47.018Z,14.20
2023-04-25T08:16:15.070Z,14.10
2023-04-25T08:18:43.081Z,14.00
2023-04-25T08:21:12.422Z,13.90
2023-04-25T08:23:40.479Z,13.90
2023-04-25T08:26:14.607Z,13.80
2023-04-25T08:28:43.792Z,13.80
2023-04-25T08:31:11.653Z,13.80
2023-04-25T08:33:52.793Z,13.80
2023-04-25T08:39:00.322Z,13.70
2023-04-25T08:41:28.898Z,13.70
2023-04-25T08:44:01.070Z,13.70
2023-04-25T08:46:29.325Z,13.70
2023-04-25T08:49:12.421Z,13.80
2023-04-25T08:51:47.937Z,13.90
2023-04-25T08:54:30.778Z,14.10
2023-04-25T08:57:03.397Z,14.30
2023-04-25T08:59:32.329Z,14.50
2023-04-25T09:02:00.352Z,14.70
2023-04-25T09:04:27.945Z,14.80
2023-04-25T09:06:56.101Z,14.90
2023-04-25T09:09:25.360Z,14.90
2023-04-25T09:11:55.766Z,14.70
2023-04-25T09:14:26.826Z,14.60
2023-04-25T09:17:05.745Z,14.50
2023-04-25T09:19:53.752Z,14.20
2023-04-25T09:22:26.524Z,14.00
2023-04-25T09:24:54.145Z,13.90
2023-04-25T09:27:26.155Z,13.80
2023-04-25T09:30:01.844Z,13.70
2023-04-25T09:32:39.000Z,13.90
2023-04-25T09:35:07.134Z,14.30
2023-04-25T09:37:35.834Z,14.80
2023-04-25T09:40:32.546Z,15.50
2023-04-25T09:43:24.840Z,16.20
2023-04-25T09:45:59.055Z,16.90
2023-04-25T09:48:29.192Z,17.40
2023-04-25T09:51:14.611Z,17.80
2023-04-25T09:53:52.745Z,18.00
2023-04-25T09:56:38.496Z,18.10
2023-04-25T09:59:09.818Z,17.90
2023-04-25T10:01:42.376Z,17.80
2023-04-25T10:04:21.632Z,17.50
2023-04-25T10:07:07.198Z,17.20
2023-04-25T10:09:38.283Z,16.90
2023-04-25T10:12:07.086Z,16.70
2023-04-25T10:14:35.213Z,16.50
2023-04-25T10:17:02.789Z,16.30
2023-04-25T10:19:30.871Z,16.20
2023-04-25T10:22:15.916Z,16.00
2023-04-25T10:24:44.706Z,15.90
2023-04-25T10:27:12.220Z,15.80
2023-04-25T10:29:39.729Z,15.70
2023-04-25T10:32:07.194Z,15.60
2023-04-25T10:34:41.953Z,15.70
2023-04-25T10:37:11.638Z,15.70
2023-04-25T10:39:41.435Z,15.80
2023-04-25T10:42:09.416Z,15.90
2023-04-25T10:44:41.018Z,15.90
2023-04-25T10:47:10.627Z,15.90
2023-04-25T10:49:43.116Z,15.80
2023-04-25T10:52:16.291Z,15.80
2023-04-25T10:54:48.312Z,15.70
2023-04-25T10:57:41.774Z,15.60
2023-04-25T11:00:12.783Z,15.50
2023-04-25T11:02:49.112Z,15.50
2023-04-25T11:05:22.721Z,15.50
2023-04-25T11:08:07.241Z,15.50
2023-04-25T11:10:38.476Z,15.50
2023-04-25T11:13:06.031Z,15.50
2023-04-25T11:15:33.727Z,15.70
2023-04-25T11:18:02.099Z,15.80
2023-04-25T11:20:29.827Z,15.90
2023-04-25T11:23:00.995Z,16.10
2023-04-25T11:25:29.175Z,16.20
2023-04-25T11:27:59.290Z,16.30
2023-04-25T11:30:27.861Z,16.30
2023-04-25T11:32:55.906Z,16.30
2023-04-25T11:35:24.446Z,16.20
2023-04-25T11:37:53.096Z,16.20
2023-04-25T11:40:20.693Z,16.10
2023-04-25T11:42:48.795Z,16.10
2023-04-25T11:45:16.497Z,16.10
2023-04-25T11:47:44.080Z,16.10
2023-04-25T11:50:11.780Z,16.10
2023-04-25T11:52:40.643Z,16.10
2023-04-25T11:55:11.374Z,16.10
2023-04-25T11:57:41.070Z,16.10
2023-04-25T12:00:18.543Z,16.20
2023-04-25T12:02:48.979Z,16.10
2023-04-25T12:05:31.158Z,16.10
2023-04-25T12:08:16.251Z,16.00
2023-04-25T12:10:46.636Z,16.00
2023-04-25T12:13:27.073Z,16.00
2023-04-25T12:15:57.889Z,16.00
2023-04-25T12:18:29.137Z,16.00
2023-04-25T12:20:57.184Z,16.10
2023-04-25T12:23:31.650Z,16.20
2023-04-25T12:25:59.365Z,16.30
2023-04-25T12:28:29.889Z,16.30
2023-04-25T12:31:00.045Z,16.40
2023-04-25T12:33:30.394Z,16.50
2023-04-25T12:35:59.090Z,16.50
2023-04-25T12:38:28.739Z,16.50
2023-04-25T12:40:56.645Z,16.50
2023-04-25T12:43:24.314Z,16.40
2023-04-25T12:45:53.408Z,16.30
2023-04-25T12:48:21.791Z,16.20
2023-04-25T12:50:50.662Z,16.00
2023-04-25T12:53:19.084Z,15.90
2023-04-25T12:55:49.947Z,15.90
2023-04-25T12:58:19.354Z,15.80
2023-04-25T13:00:47.447Z,15.70
2023-04-25T13:03:15.292Z,15.70
2023-04-25T13:05:43.429Z,15.70
2023-04-25T13:08:11.125Z,15.60
2023-04-25T13:10:40.017Z,15.60
2023-04-25T13:13:07.673Z,15.60
2023-04-25T13:15:36.110Z,15.70
2023-04-25T13:18:06.509Z,15.80
2023-04-25T13:20:34.518Z,15.80
2023-04-25T13:23:02.933Z,15.90
2023-04-25T13:25:30.817Z,15.90
2023-04-25T13:27:58.308Z,15.90
2023-04-25T13:30:26.320Z,15.80
2023-04-25T13:32:57.114Z,15.80
2023-04-25T13:35:24.655Z,15.80
2023-04-25T13:37:52.255Z,15.70
2023-04-25T13:40:19.620Z,15.70
2023-04-25T13:42:47.155Z,15.70
2023-04-25T13:45:14.957Z,15.60
2023-04-25T13:47:42.558Z,15.60
2023-04-25T13:50:10.993Z,15.60
2023-04-25T13:52:38.533Z,15.60
2023-04-25T13:55:07.788Z,15.70
2023-04-25T13:57:36.019Z,15.70
2023-04-25T14:00:09.600Z,15.70
2023-04-25T14:02:37.546Z,15.60
2023-04-25T14:05:06.185Z,15.50
2023-04-25T14:07:36.032Z,15.40
2023-04-25T14:10:05.644Z,15.40
2023-04-25T14:12:33.890Z,15.30
2023-04-25T14:15:01.521Z,15.30
2023-04-25T14:17:28.943Z,15.40
2023-04-25T14:19:56.456Z,15.40
2023-04-25T14:22:23.897Z,15.40
2023-04-25T14:24:51.262Z,15.50
2023-04-25T14:27:18.638Z,15.50
2023-04-25T14:29:45.892Z,15.50
2023-04-25T14:32:13.088Z,15.50
2023-04-25T14:34:41.314Z,15.40
2023-04-25T14:37:08.689Z,15.40
2023-04-25T14:39:36.407Z,15.30
2023-04-25T14:42:04.395Z,15.30
2023-04-25T14:44:31.925Z,15.20
2023-04-25T14:46:59.458Z,15.20
2023-04-25T14:49:26.944Z,15.20
2023-04-25T14:51:54.425Z,15.20
2023-04-25T14:54:21.835Z,15.10
2023-04-25T14:56:49.219Z,15.10
2023-04-25T14:59:16.919Z,15.00
2023-04-25T15:01:45.019Z,14.90
2023-04-25T15:04:13.635Z,14.90
2023-04-25T15:06:41.254Z,14.80
2023-04-25T15:09:09.490Z,14.70
2023-04-25T15:11:37.402Z,14.70
2023-04-25T15:14:05.427Z,14.60
2023-04-25T15:16:32.992Z,14.50
2023-04-25T15:19:00.616Z,14.50
2023-04-25T15:21:28.215Z,14.50
2023-04-25T15:23:56.024Z,14.60
2023-04-25T15:26:23.636Z,14.70
2023-04-25T15:28:51.052Z,14.60
2023-04-25T15:31:18.454Z,14.60
2023-04-25T15:33:46.256Z,14.60
2023-04-25T15:36:13.758Z,14.60
2023-04-25T15:38:41.347Z,14.60
2023-04-25T15:41:08.834Z,14.50
2023-04-25T15:43:40.311Z,14.50
2023-04-25T15:46:07.793Z,14.50
2023-04-25T15:48:36.270Z,14.40
2023-04-25T15:51:03.709Z,14.40
2023-04-25T15:53:31.591Z,14.40
2023-04-25T15:55:58.980Z,14.30
2023-04-25T15:58:27.362Z,14.30
2023-04-25T16:00:55.641Z,14.30
2023-04-25T16:03:23.862Z,14.10
2023-04-25T16:05:51.592Z,14.10
2023-04-25T16:08:19.077Z,13.90
2023-04-25T16:10:46.453Z,13.80
2023-04-25T16:13:14.010Z,13.70
2023-04-25T16:15:41.525Z,13.70
2023-04-25T16:18:09.412Z,13.70
2023-04-25T16:20:36.748Z,13.60
2023-04-25T16:23:04.080Z,13.60
2023-04-25T16:25:31.510Z,13.60
2023-04-25T16:27:59.426Z,13.60
2023-04-25T16:30:26.981Z,13.60
2023-04-25T16:32:57.004Z,13.60
2023-04-25T16:35:25.501Z,13.50
2023-04-25T16:37:53.059Z,13.60
2023-04-25T16:40:20.917Z,13.60
2023-04-25T16:42:48.262Z,13.50
2023-04-25T16:45:17.782Z,13.50
2023-04-25T16:47:46.424Z,13.50
2023-04-25T16:50:15.195Z,13.50
2023-04-25T16:52:44.424Z,13.50
2023-04-25T16:55:11.972Z,13.40
2023-04-25T16:57:39.469Z,13.50
2023-04-25T17:00:09.640Z,13.40
2023-04-25T17:02:37.412Z,13.50
2023-04-25T17:05:05.240Z,13.40
2023-04-25T17:07:32.925Z,13.40
2023-04-25T17:10:00.507Z,13.40
2023-04-25T17:12:28.153Z,13.40
2023-04-25T17:14:55.438Z,13.40
2023-04-25T17:17:22.793Z,13.30
2023-04-25T17:19:50.195Z,13.30
2023-04-25T17:22:17.573Z,13.30
2023-04-25T17:24:44.810Z,13.30
2023-04-25T17:27:12.045Z,13.20
2023-04-25T17:29:39.467Z,13.20
2023-04-25T17:32:07.281Z,13.20
2023-04-25T17:34:37.580Z,13.20
2023-04-25T17:37:04.999Z,13.10
2023-04-25T17:39:32.456Z,13.10
2023-04-25T17:42:01.057Z,13.10
2023-04-25T17:44:28.528Z,13.00
2023-04-25T17:46:55.909Z,13.00
2023-04-25T17:49:23.357Z,13.00
2023-04-25T17:51:50.826Z,13.00
2023-04-25T17:54:18.709Z,13.00
2023-04-25T17:56:46.049Z,12.90
2023-04-25T17:59:13.650Z,12.90
2023-04-25T18:01:43.714Z,12.90
2023-04-25T18:04:13.497Z,12.90
2023-04-25T18:06:41.505Z,12.80
2023-04-25T18:09:15.965Z,12.80
2023-04-25T18:11:47.119Z,12.80
2023-04-25T18:14:16.000Z,12.70
2023-04-25T18:16:44.502Z,12.70
2023-04-25T18:19:15.286Z,12.70
2023-04-25T18:21:43.357Z,12.60
2023-04-25T18:24:12.431Z,12.60
2023-04-25T18:26:40.602Z,12.50
2023-04-25T18:29:10.575Z,12.50
2023-04-25T18:31:40.317Z,12.50
2023-04-25T18:34:08.762Z,12.40
2023-04-25T18:36:37.147Z,12.40
2023-04-25T18:39:19.460Z,12.40
2023-04-25T18:41:58.146Z,12.40
2023-04-25T18:44:28.170Z,12.40
2023-04-25T18:46:55.758Z,12.40
2023-04-25T18:49:23.237Z,12.30
2023-04-25T18:51:51.147Z,12.30
2023-04-25T18:54:18.616Z,12.30
2023-04-25T18:56:46.831Z,12.20
2023-04-25T18:59:15.499Z,12.20
2023-04-25T19:01:43.509Z,12.20
2023-04-25T19:04:11.521Z,12.10
2023-04-25T19:06:39.084Z,12.10
2023-04-25T19:09:07.689Z,12.00
2023-04-25T19:11:35.111Z,12.00
2023-04-25T19:14:02.703Z,12.00
2023-04-25T19:16:30.172Z,12.00
2023-04-25T19:18:57.754Z,12.00
2023-04-25T19:21:25.510Z,12.00
2023-04-25T19:23:54.399Z,12.00
2023-04-25T19:26:22.538Z,12.00
2023-04-25T19:29:07.300Z,12.00
2023-04-25T19:31:36.648Z,11.90
2023-04-25T19:34:05.860Z,11.90
2023-04-25T19:36:34.319Z,11.90
2023-04-25T19:39:04.689Z,11.90
2023-04-25T19:41:33.700Z,11.90
2023-04-25T19:44:03.285Z,11.90
2023-04-25T19:46:34.215Z,11.80
2023-04-25T19:49:03.154Z,11.90
2023-04-25T19:51:31.991Z,11.90
2023-04-25T19:53:59.707Z,11.90
2023-04-25T19:56:27.228Z,11.90
2023-04-25T19:58:54.832Z,11.90
2023-04-25T20:01:22.755Z,11.90
2023-04-25T20:03:51.749Z,11.80
2023-04-25T20:06:19.619Z,11.80
2023-04-25T20:08:47.287Z,11.80
2023-04-25T20:11:15.047Z,11.80
2023-04-25T20:13:42.328Z,11.80
2023-04-25T20:16:10.779Z,11.80
2023-04-25T20:18:39.030Z,11.80
2023-04-25T20:21:07.559Z,11.70
2023-04-25T20:23:34.937Z,11.70
2023-04-25T20:26:04.578Z,11.70
2023-04-25T20:28:32.961Z,11.70
2023-04-25T20:31:00.748Z,11.70
2023-04-25T20:33:28.481Z,11.70
2023-04-25T20:35:56.004Z,11.70
2023-04-25T20:38:23.359Z,11.60
2023-04-25T20:40:50.923Z,11.60
2023-04-25T20:43:19.800Z,11.60
2023-04-25T20:45:47.255Z,11.60
2023-04-25T20:48:15.131Z,11.60
2023-04-25T20:50:43.259Z,11.60
2023-04-25T20:53:10.573Z,11.60
2023-04-25T20:55:37.970Z,11.60
2023-04-25T20:58:06.832Z,11.60
2023-04-25T21:00:34.758Z,11.60
2023-04-25T21:03:05.341Z,11.60
2023-04-25T21:05:33.014Z,11.60
2023-04-25T21:08:00.551Z,11.50
2023-04-25T21:10:27.951Z,11.50
2023-04-25T21:12:56.559Z,11.50
2023-04-25T21:15:24.867Z,11.40
2023-04-25T21:17:52.354Z,11.40
2023-04-25T21:20:21.889Z,11.40
2023-04-25T21:22:53.752Z,11.30
2023-04-25T21:25:31.276Z,11.20
2023-04-25T21:28:00.242Z,11.20
2023-04-25T21:30:27.756Z,11.10
2023-04-25T21:32:56.211Z,11.10
2023-04-25T21:35:23.576Z,11.00
2023-04-25T21:37:51.153Z,11.00
2023-04-25T21:40:18.850Z,10.90
2023-04-25T21:42:51.343Z,10.80
2023-04-25T21:45:19.935Z,10.80
2023-04-25T21:47:48.457Z,10.70
2023-04-25T21:50:16.858Z,10.70
2023-04-25T21:52:44.322Z,10.60
2023-04-25T21:55:11.897Z,10.60
2023-04-25T21:57:39.263Z,10.60
2023-04-25T22:00:28.490Z,10.50
2023-04-25T22:02:56.582Z,10.50
2023-04-25T22:05:26.376Z,10.50
2023-04-25T22:07:56.914Z,10.50
2023-04-25T22:10:25.397Z,10.40
2023-04-25T22:12:52.831Z,10.40
2023-04-25T22:15:23.468Z,10.40
2023-04-25T22:17:52.284Z,10.30
2023-04-25T22:20:20.139Z,10.30
2023-04-25T22:22:47.362Z,10.30
2023-04-25T22:25:15.126Z,10.30
2023-04-25T22:27:43.599Z,10.30
2023-04-25T22:30:15.219Z,10.30
2023-04-25T22:32:42.882Z,10.30
2023-04-25T22:35:10.644Z,10.20
2023-04-25T22:37:38.631Z,10.20
2023-04-25T22:40:10.424Z,10.20
2023-04-25T22:42:42.215Z,10.10
2023-04-25T22:45:11.013Z,10.10
2023-04-25T22:47:39.324Z,10.00
2023-04-25T22:50:12.157Z,9.90
2023-04-25T22:52:39.686Z,9.90
2023-04-25T22:55:07.303Z,9.80
2023-04-25T22:57:37.432Z,9.70
2023-04-25T23:00:10.613Z,9.60
2023-04-25T23:02:38.023Z,9.60
2023-04-25T23:05:06.940Z,9.50
2023-04-25T23:07:34.775Z,9.40
2023-04-25T23:10:02.090Z,9.30
2023-04-25T23:12:29.333Z,9.30
2023-04-25T23:14:57.226Z,9.20
2023-04-25T23:17:24.518Z,9.20
2023-04-25T23:19:52.105Z,9.20
2023-04-25T23:22:19.423Z,9.10
2023-04-25T23:24:46.644Z,9.10
2023-04-25T23:27:14.321Z,9.00
2023-04-25T23:29:41.638Z,9.00
2023-04-25T23:32:09.006Z,9.00
2023-04-25T23:34:36.645Z,9.00
2023-04-25T23:37:04.454Z,9.00
2023-04-25T23:39:32.207Z,9.00
2023-04-25T23:42:00.356Z,9.00
2023-04-25T23:44:27.614Z,9.00
2023-04-25T23:46:54.873Z,9.00
2023-04-25T23:49:22.549Z,9.00
2023-04-25T23:51:49.875Z,9.00
2023-04-25T23:54:17.354Z,9.00
2023-04-25T23:56:44.660Z,9.00
2023-04-25T23:59:11.894Z,9.00
